sensor_id;sensor_type;location;lat;lon;timestamp;pressure;altitude;pressure_sealevel;temperature;humidity
47811;BME280;33575;52.600;7.318;2023-05-08T00:00:17;101988.18;;;13.43;82.51
47811;BME280;33575;52.600;7.318;2023-05-08T00:02:48;101986.48;;;13.39;82.59
47811;BME280;33575;52.600;7.318;2023-05-08T00:05:18;101983.06;;;13.34;82.63
47811;BME280;33575;52.600;7.318;2023-05-08T00:07:49;101978.08;;;13.33;82.54
47811;BME280;33575;52.600;7.318;2023-05-08T00:10:19;101974.57;;;13.27;82.62
47811;BME280;33575;52.600;7.318;2023-05-08T00:12:50;101975.78;;;13.22;82.84
47811;BME280;33575;52.600;7.318;2023-05-08T00:15:21;101975.14;;;13.19;82.89
47811;BME280;33575;52.600;7.318;2023-05-08T00:17:50;101974.75;;;13.18;82.94
47811;BME280;33575;52.600;7.318;2023-05-08T00:20:21;101974.70;;;13.16;82.94
47811;BME280;33575;52.600;7.318;2023-05-08T00:22:52;101972.85;;;13.13;83.09
47811;BME280;33575;52.600;7.318;2023-05-08T00:25:21;101971.82;;;13.13;83.20
47811;BME280;33575;52.600;7.318;2023-05-08T00:27:52;101973.99;;;13.12;83.28
47811;BME280;33575;52.600;7.318;2023-05-08T00:30:22;101973.86;;;13.15;83.00
47811;BME280;33575;52.600;7.318;2023-05-08T00:32:53;101972.41;;;13.13;82.99
47811;BME280;33575;52.600;7.318;2023-05-08T00:35:23;101971.47;;;13.12;83.16
47811;BME280;33575;52.600;7.318;2023-05-08T00:37:54;101974.82;;;13.15;83.19
47811;BME280;33575;52.600;7.318;2023-05-08T00:40:25;101976.30;;;13.17;83.18
47811;BME280;33575;52.600;7.318;2023-05-08T00:42:55;101977.43;;;13.15;83.36
47811;BME280;33575;52.600;7.318;2023-05-08T00:45:27;101980.59;;;13.12;83.37
47811;BME280;33575;52.600;7.318;2023-05-08T00:47:56;101982.26;;;13.13;83.21
47811;BME280;33575;52.600;7.318;2023-05-08T00:50:26;101981.77;;;13.11;83.29
47811;BME280;33575;52.600;7.318;2023-05-08T00:52:57;101980.07;;;13.08;83.19
47811;BME280;33575;52.600;7.318;2023-05-08T00:55:28;101976.43;;;13.01;83.35
47811;BME280;33575;52.600;7.318;2023-05-08T00:57:58;101972.93;;;12.99;83.40
47811;BME280;33575;52.600;7.318;2023-05-08T01:00:28;101972.71;;;12.96;83.35
47811;BME280;33575;52.600;7.318;2023-05-08T01:02:59;101973.15;;;12.91;83.50
47811;BME280;33575;52.600;7.318;2023-05-08T01:05:29;101977.01;;;12.87;83.42
47811;BME280;33575;52.600;7.318;2023-05-08T01:07:59;101979.33;;;12.85;83.54
47811;BME280;33575;52.600;7.318;2023-05-08T01:10:37;101983.12;;;12.85;83.61
47811;BME280;33575;52.600;7.318;2023-05-08T01:13:07;101984.18;;;12.84;83.70
47811;BME280;33575;52.600;7.318;2023-05-08T01:15:40;101982.31;;;12.83;83.59
47811;BME280;33575;52.600;7.318;2023-05-08T01:18:09;101982.08;;;12.84;83.47
47811;BME280;33575;52.600;7.318;2023-05-08T01:20:39;101982.13;;;12.81;83.49
47811;BME280;33575;52.600;7.318;2023-05-08T01:23:18;101983.80;;;12.78;83.61
47811;BME280;33575;52.600;7.318;2023-05-08T01:28:18;101986.64;;;12.79;83.57
47811;BME280;33575;52.600;7.318;2023-05-08T01:30:50;101988.26;;;12.81;83.59
47811;BME280;33575;52.600;7.318;2023-05-08T01:33:09;101988.98;;;12.82;83.50
47811;BME280;33575;52.600;7.318;2023-05-08T01:35:40;101988.85;;;12.82;83.36
47811;BME280;33575;52.600;7.318;2023-05-08T01:38:09;101985.48;;;12.78;83.43
47811;BME280;33575;52.600;7.318;2023-05-08T01:40:43;101985.11;;;12.76;83.59
47811;BME280;33575;52.600;7.318;2023-05-08T01:43:13;101981.63;;;12.75;83.68
47811;BME280;33575;52.600;7.318;2023-05-08T01:45:39;101981.78;;;12.74;83.66
47811;BME280;33575;52.600;7.318;2023-05-08T01:48:10;101976.78;;;12.72;83.79
47811;BME280;33575;52.600;7.318;2023-05-08T01:50:43;101973.31;;;12.71;83.72
47811;BME280;33575;52.600;7.318;2023-05-08T01:53:16;101976.06;;;12.66;83.69
47811;BME280;33575;52.600;7.318;2023-05-08T01:55:39;101979.33;;;12.63;83.74
47811;BME280;33575;52.600;7.318;2023-05-08T01:58:09;101978.78;;;12.58;83.86
47811;BME280;33575;52.600;7.318;2023-05-08T02:00:40;101978.55;;;12.55;83.91
47811;BME280;33575;52.600;7.318;2023-05-08T02:03:11;101978.00;;;12.51;84.09
47811;BME280;33575;52.600;7.318;2023-05-08T02:05:42;101977.70;;;12.46;84.20
47811;BME280;33575;52.600;7.318;2023-05-08T02:08:12;101972.90;;;12.45;84.25
47811;BME280;33575;52.600;7.318;2023-05-08T02:10:42;101979.63;;;12.40;84.31
47811;BME280;33575;52.600;7.318;2023-05-08T02:13:13;101978.47;;;12.40;84.30
47811;BME280;33575;52.600;7.318;2023-05-08T02:15:43;101982.58;;;12.39;84.30
47811;BME280;33575;52.600;7.318;2023-05-08T02:18:13;101979.25;;;12.36;84.28
47811;BME280;33575;52.600;7.318;2023-05-08T02:20:43;101979.41;;;12.31;84.57
47811;BME280;33575;52.600;7.318;2023-05-08T02:23:14;101977.67;;;12.25;84.70
47811;BME280;33575;52.600;7.318;2023-05-08T02:25:45;101976.97;;;12.20;84.68
47811;BME280;33575;52.600;7.318;2023-05-08T02:28:15;101973.97;;;12.15;84.91
47811;BME280;33575;52.600;7.318;2023-05-08T02:30:45;101971.91;;;12.17;84.74
47811;BME280;33575;52.600;7.318;2023-05-08T02:33:15;101972.90;;;12.18;84.83
47811;BME280;33575;52.600;7.318;2023-05-08T02:35:48;101969.41;;;12.20;84.72
47811;BME280;33575;52.600;7.318;2023-05-08T02:38:19;101966.53;;;12.20;84.74
47811;BME280;33575;52.600;7.318;2023-05-08T02:40:50;101967.59;;;12.19;84.72
47811;BME280;33575;52.600;7.318;2023-05-08T02:43:17;101964.35;;;12.22;84.55
47811;BME280;33575;52.600;7.318;2023-05-08T02:45:51;101959.31;;;12.24;84.39
47811;BME280;33575;52.600;7.318;2023-05-08T02:48:23;101958.50;;;12.22;84.36
47811;BME280;33575;52.600;7.318;2023-05-08T02:50:54;101952.06;;;12.18;84.57
47811;BME280;33575;52.600;7.318;2023-05-08T02:53:24;101950.00;;;12.12;84.70
47811;BME280;33575;52.600;7.318;2023-05-08T02:55:53;101950.31;;;12.09;84.78
47811;BME280;33575;52.600;7.318;2023-05-08T02:58:32;101949.61;;;12.04;85.08
47811;BME280;33575;52.600;7.318;2023-05-08T03:00:55;101952.34;;;12.04;84.96
47811;BME280;33575;52.600;7.318;2023-05-08T03:03:24;101949.41;;;12.04;84.98
47811;BME280;33575;52.600;7.318;2023-05-08T03:05:54;101952.83;;;12.04;85.13
47811;BME280;33575;52.600;7.318;2023-05-08T03:08:26;101956.47;;;12.03;84.90
47811;BME280;33575;52.600;7.318;2023-05-08T03:10:56;101953.64;;;11.97;85.20
47811;BME280;33575;52.600;7.318;2023-05-08T03:13:24;101954.58;;;11.97;85.04
47811;BME280;33575;52.600;7.318;2023-05-08T03:15:56;101954.86;;;11.99;85.20
47811;BME280;33575;52.600;7.318;2023-05-08T03:18:29;101957.40;;;12.01;85.17
47811;BME280;33575;52.600;7.318;2023-05-08T03:20:56;101956.19;;;12.01;85.46
47811;BME280;33575;52.600;7.318;2023-05-08T03:23:27;101959.50;;;12.04;85.33
47811;BME280;33575;52.600;7.318;2023-05-08T03:25:57;101959.65;;;12.06;84.98
47811;BME280;33575;52.600;7.318;2023-05-08T03:28:27;101962.85;;;12.06;84.64
47811;BME280;33575;52.600;7.318;2023-05-08T03:30:58;101965.32;;;12.01;84.76
47811;BME280;33575;52.600;7.318;2023-05-08T03:33:27;101964.69;;;11.99;84.77
47811;BME280;33575;52.600;7.318;2023-05-08T03:35:57;101966.48;;;11.98;84.70
47811;BME280;33575;52.600;7.318;2023-05-08T03:38:27;101966.99;;;11.95;84.77
47811;BME280;33575;52.600;7.318;2023-05-08T03:40:58;101967.91;;;11.92;84.72
47811;BME280;33575;52.600;7.318;2023-05-08T03:43:28;101969.43;;;11.90;84.77
47811;BME280;33575;52.600;7.318;2023-05-08T03:45:58;101968.76;;;11.90;84.76
47811;BME280;33575;52.600;7.318;2023-05-08T03:48:30;101969.29;;;11.91;84.55
47811;BME280;33575;52.600;7.318;2023-05-08T03:51:00;101971.33;;;11.91;84.49
47811;BME280;33575;52.600;7.318;2023-05-08T03:53:30;101973.79;;;11.91;84.63
47811;BME280;33575;52.600;7.318;2023-05-08T03:56:00;101981.79;;;11.94;84.55
47811;BME280;33575;52.600;7.318;2023-05-08T03:58:33;101987.76;;;11.98;84.43
47811;BME280;33575;52.600;7.318;2023-05-08T04:01:05;101988.64;;;11.98;84.83
47811;BME280;33575;52.600;7.318;2023-05-08T04:03:40;101992.68;;;11.99;85.05
47811;BME280;33575;52.600;7.318;2023-05-08T04:06:08;101995.57;;;12.01;84.96
47811;BME280;33575;52.600;7.318;2023-05-08T04:08:38;101994.40;;;12.05;84.84
47811;BME280;33575;52.600;7.318;2023-05-08T04:11:10;101990.94;;;12.06;84.83
47811;BME280;33575;52.600;7.318;2023-05-08T04:13:38;101989.69;;;12.08;84.71
47811;BME280;33575;52.600;7.318;2023-05-08T04:16:08;101984.98;;;12.05;84.50
47811;BME280;33575;52.600;7.318;2023-05-08T04:18:36;101978.48;;;12.02;84.66
47811;BME280;33575;52.600;7.318;2023-05-08T04:21:09;101976.28;;;11.99;84.64
47811;BME280;33575;52.600;7.318;2023-05-08T04:23:37;101978.52;;;11.95;84.96
47811;BME280;33575;52.600;7.318;2023-05-08T04:26:07;101979.08;;;11.93;85.25
47811;BME280;33575;52.600;7.318;2023-05-08T04:28:36;101978.10;;;11.94;85.58
47811;BME280;33575;52.600;7.318;2023-05-08T04:31:06;101980.63;;;11.94;85.65
47811;BME280;33575;52.600;7.318;2023-05-08T04:33:37;101980.87;;;11.93;85.71
47811;BME280;33575;52.600;7.318;2023-05-08T04:36:10;101983.47;;;11.96;85.78
47811;BME280;33575;52.600;7.318;2023-05-08T04:38:38;101983.62;;;11.96;85.86
47811;BME280;33575;52.600;7.318;2023-05-08T04:41:08;101986.36;;;11.98;86.00
47811;BME280;33575;52.600;7.318;2023-05-08T04:43:39;101989.81;;;12.01;85.90
47811;BME280;33575;52.600;7.318;2023-05-08T04:46:10;101989.82;;;12.03;85.95
47811;BME280;33575;52.600;7.318;2023-05-08T04:48:40;101990.64;;;12.05;85.95
47811;BME280;33575;52.600;7.318;2023-05-08T04:51:10;101985.70;;;12.05;85.80
47811;BME280;33575;52.600;7.318;2023-05-08T04:53:40;101984.83;;;12.03;85.81
47811;BME280;33575;52.600;7.318;2023-05-08T04:56:10;101982.05;;;11.97;85.79
47811;BME280;33575;52.600;7.318;2023-05-08T04:58:40;101983.36;;;11.93;85.80
47811;BME280;33575;52.600;7.318;2023-05-08T05:01:11;101984.72;;;11.89;86.12
47811;BME280;33575;52.600;7.318;2023-05-08T05:03:41;101981.35;;;11.89;86.05
47811;BME280;33575;52.600;7.318;2023-05-08T05:06:12;101978.21;;;11.84;86.42
47811;BME280;33575;52.600;7.318;2023-05-08T05:08:42;101981.77;;;11.84;86.44
47811;BME280;33575;52.600;7.318;2023-05-08T05:11:13;101986.76;;;11.78;86.78
47811;BME280;33575;52.600;7.318;2023-05-08T05:13:43;101991.36;;;11.79;86.67
47811;BME280;33575;52.600;7.318;2023-05-08T05:16:13;101989.85;;;11.81;86.79
47811;BME280;33575;52.600;7.318;2023-05-08T05:18:44;101987.33;;;11.85;86.72
47811;BME280;33575;52.600;7.318;2023-05-08T05:21:14;101984.67;;;11.89;86.50
47811;BME280;33575;52.600;7.318;2023-05-08T05:23:44;101983.56;;;11.88;86.39
47811;BME280;33575;52.600;7.318;2023-05-08T05:26:15;101981.85;;;11.85;86.63
47811;BME280;33575;52.600;7.318;2023-05-08T05:28:45;101981.42;;;11.81;86.85
47811;BME280;33575;52.600;7.318;2023-05-08T05:31:15;101982.75;;;11.77;86.72
47811;BME280;33575;52.600;7.318;2023-05-08T05:33:45;101982.98;;;11.74;86.85
47811;BME280;33575;52.600;7.318;2023-05-08T05:36:16;101984.73;;;11.76;86.86
47811;BME280;33575;52.600;7.318;2023-05-08T05:38:47;101989.33;;;11.77;86.90
47811;BME280;33575;52.600;7.318;2023-05-08T05:41:17;101987.22;;;11.77;86.90
47811;BME280;33575;52.600;7.318;2023-05-08T05:43:47;101985.62;;;11.81;86.64
47811;BME280;33575;52.600;7.318;2023-05-08T05:46:17;101980.87;;;11.81;86.86
47811;BME280;33575;52.600;7.318;2023-05-08T05:48:47;101982.27;;;11.85;86.81
47811;BME280;33575;52.600;7.318;2023-05-08T05:51:18;101985.77;;;11.83;87.06
47811;BME280;33575;52.600;7.318;2023-05-08T05:53:48;101986.04;;;11.88;86.55
47811;BME280;33575;52.600;7.318;2023-05-08T05:56:18;101985.91;;;11.90;86.60
47811;BME280;33575;52.600;7.318;2023-05-08T05:58:49;101990.50;;;11.89;86.68
47811;BME280;33575;52.600;7.318;2023-05-08T06:01:20;101992.37;;;11.91;86.77
47811;BME280;33575;52.600;7.318;2023-05-08T06:03:50;102000.60;;;11.95;86.76
47811;BME280;33575;52.600;7.318;2023-05-08T06:06:20;102004.18;;;11.96;86.74
47811;BME280;33575;52.600;7.318;2023-05-08T06:08:50;102005.41;;;12.02;86.64
47811;BME280;33575;52.600;7.318;2023-05-08T06:11:21;102004.24;;;12.11;86.62
47811;BME280;33575;52.600;7.318;2023-05-08T06:13:52;102005.15;;;12.17;86.66
47811;BME280;33575;52.600;7.318;2023-05-08T06:16:22;102005.98;;;12.16;86.62
47811;BME280;33575;52.600;7.318;2023-05-08T06:18:53;102007.67;;;12.22;86.66
47811;BME280;33575;52.600;7.318;2023-05-08T06:21:23;102007.18;;;12.28;86.63
47811;BME280;33575;52.600;7.318;2023-05-08T06:23:54;102006.41;;;12.34;86.94
47811;BME280;33575;52.600;7.318;2023-05-08T06:26:25;102011.28;;;12.43;86.36
47811;BME280;33575;52.600;7.318;2023-05-08T06:28:55;102013.72;;;12.52;86.11
47811;BME280;33575;52.600;7.318;2023-05-08T06:31:25;102016.96;;;12.58;85.68
47811;BME280;33575;52.600;7.318;2023-05-08T06:33:56;102018.05;;;12.61;85.72
47811;BME280;33575;52.600;7.318;2023-05-08T06:36:27;102015.70;;;12.67;85.72
47811;BME280;33575;52.600;7.318;2023-05-08T06:38:58;102018.17;;;12.74;85.68
47811;BME280;33575;52.600;7.318;2023-05-08T06:41:28;102020.89;;;12.69;85.63
47811;BME280;33575;52.600;7.318;2023-05-08T06:43:58;102023.72;;;12.68;85.91
47811;BME280;33575;52.600;7.318;2023-05-08T06:46:29;102027.28;;;12.72;85.97
47811;BME280;33575;52.600;7.318;2023-05-08T06:49:00;102030.32;;;12.81;85.78
47811;BME280;33575;52.600;7.318;2023-05-08T06:51:33;102022.67;;;12.87;85.24
47811;BME280;33575;52.600;7.318;2023-05-08T06:54:01;102024.11;;;12.97;84.78
47811;BME280;33575;52.600;7.318;2023-05-08T06:56:32;102025.37;;;13.00;85.77
47811;BME280;33575;52.600;7.318;2023-05-08T06:59:08;102025.64;;;13.06;85.68
47811;BME280;33575;52.600;7.318;2023-05-08T07:01:33;102027.25;;;13.17;85.60
47811;BME280;33575;52.600;7.318;2023-05-08T07:04:03;102027.67;;;13.23;85.25
47811;BME280;33575;52.600;7.318;2023-05-08T07:06:33;102024.49;;;13.32;85.09
47811;BME280;33575;52.600;7.318;2023-05-08T07:09:04;102023.67;;;13.37;85.15
47811;BME280;33575;52.600;7.318;2023-05-08T07:11:34;102021.35;;;13.41;85.01
47811;BME280;33575;52.600;7.318;2023-05-08T07:14:05;102021.50;;;13.47;85.43
47811;BME280;33575;52.600;7.318;2023-05-08T07:16:36;102014.81;;;13.53;85.03
47811;BME280;33575;52.600;7.318;2023-05-08T07:19:06;102015.52;;;13.58;85.53
47811;BME280;33575;52.600;7.318;2023-05-08T07:21:37;102011.84;;;13.61;84.96
47811;BME280;33575;52.600;7.318;2023-05-08T07:24:07;102015.40;;;13.68;84.58
47811;BME280;33575;52.600;7.318;2023-05-08T07:26:38;102017.60;;;13.76;85.23
47811;BME280;33575;52.600;7.318;2023-05-08T07:29:09;102013.43;;;13.78;85.37
47811;BME280;33575;52.600;7.318;2023-05-08T07:31:40;102014.69;;;13.77;84.96
47811;BME280;33575;52.600;7.318;2023-05-08T07:34:10;102011.23;;;13.82;85.85
47811;BME280;33575;52.600;7.318;2023-05-08T07:36:40;102014.45;;;13.85;85.04
47811;BME280;33575;52.600;7.318;2023-05-08T07:39:10;102009.97;;;13.92;86.03
47811;BME280;33575;52.600;7.318;2023-05-08T07:41:41;102011.21;;;14.03;85.65
47811;BME280;33575;52.600;7.318;2023-05-08T07:44:12;102007.21;;;14.19;85.09
47811;BME280;33575;52.600;7.318;2023-05-08T07:46:42;102009.62;;;14.27;85.34
47811;BME280;33575;52.600;7.318;2023-05-08T07:49:12;102005.93;;;14.30;85.38
47811;BME280;33575;52.600;7.318;2023-05-08T07:51:43;102004.43;;;14.34;84.90
47811;BME280;33575;52.600;7.318;2023-05-08T07:54:14;102005.99;;;14.37;85.56
47811;BME280;33575;52.600;7.318;2023-05-08T07:56:45;102000.87;;;14.41;85.25
47811;BME280;33575;52.600;7.318;2023-05-08T07:59:15;102006.60;;;14.50;85.79
47811;BME280;33575;52.600;7.318;2023-05-08T08:01:46;102004.13;;;14.62;85.33
47811;BME280;33575;52.600;7.318;2023-05-08T08:04:16;102006.22;;;14.77;85.01
47811;BME280;33575;52.600;7.318;2023-05-08T08:06:47;102008.93;;;14.94;84.88
47811;BME280;33575;52.600;7.318;2023-05-08T08:09:18;102013.08;;;14.98;85.17
47811;BME280;33575;52.600;7.318;2023-05-08T08:11:49;102009.53;;;15.03;84.77
47811;BME280;33575;52.600;7.318;2023-05-08T08:14:19;102012.43;;;15.05;86.02
47811;BME280;33575;52.600;7.318;2023-05-08T08:16:50;102010.37;;;15.16;85.14
47811;BME280;33575;52.600;7.318;2023-05-08T08:19:20;102011.04;;;15.26;84.70
47811;BME280;33575;52.600;7.318;2023-05-08T08:21:50;102011.15;;;15.33;84.70
47811;BME280;33575;52.600;7.318;2023-05-08T08:24:21;102009.53;;;15.41;84.69
47811;BME280;33575;52.600;7.318;2023-05-08T08:26:50;102005.29;;;15.53;84.38
47811;BME280;33575;52.600;7.318;2023-05-08T08:29:21;102007.29;;;15.59;84.31
47811;BME280;33575;52.600;7.318;2023-05-08T08:31:51;102005.34;;;15.68;84.77
47811;BME280;33575;52.600;7.318;2023-05-08T08:34:22;102000.79;;;15.83;84.49
47811;BME280;33575;52.600;7.318;2023-05-08T08:36:52;101997.60;;;15.93;83.60
47811;BME280;33575;52.600;7.318;2023-05-08T08:39:23;101993.50;;;16.00;84.01
47811;BME280;33575;52.600;7.318;2023-05-08T08:41:53;101994.98;;;16.12;83.28
47811;BME280;33575;52.600;7.318;2023-05-08T08:44:23;101989.77;;;16.19;81.31
47811;BME280;33575;52.600;7.318;2023-05-08T08:46:57;101990.00;;;16.27;82.35
47811;BME280;33575;52.600;7.318;2023-05-08T08:49:28;101988.42;;;16.40;82.76
47811;BME280;33575;52.600;7.318;2023-05-08T08:51:58;101989.86;;;16.51;83.21
47811;BME280;33575;52.600;7.318;2023-05-08T08:54:27;101989.93;;;16.63;81.38
47811;BME280;33575;52.600;7.318;2023-05-08T08:56:56;101982.10;;;16.74;82.63
47811;BME280;33575;52.600;7.318;2023-05-08T08:59:26;101985.10;;;16.84;82.65
47811;BME280;33575;52.600;7.318;2023-05-08T09:02:00;101980.65;;;16.93;81.20
47811;BME280;33575;52.600;7.318;2023-05-08T09:04:25;101979.03;;;16.98;79.77
47811;BME280;33575;52.600;7.318;2023-05-08T09:06:55;101975.95;;;16.91;78.54
47811;BME280;33575;52.600;7.318;2023-05-08T09:09:26;101974.84;;;16.95;80.11
47811;BME280;33575;52.600;7.318;2023-05-08T09:11:56;101975.79;;;17.04;80.48
47811;BME280;33575;52.600;7.318;2023-05-08T09:14:26;101972.02;;;17.13;80.74
47811;BME280;33575;52.600;7.318;2023-05-08T09:16:57;101968.43;;;17.25;80.85
47811;BME280;33575;52.600;7.318;2023-05-08T09:19:30;101968.88;;;17.36;81.34
47811;BME280;33575;52.600;7.318;2023-05-08T09:21:58;101970.92;;;17.48;82.18
47811;BME280;33575;52.600;7.318;2023-05-08T09:26:59;101965.76;;;17.73;80.83
47811;BME280;33575;52.600;7.318;2023-05-08T09:29:29;101969.46;;;17.88;80.76
47811;BME280;33575;52.600;7.318;2023-05-08T09:31:59;101972.11;;;18.03;80.72
47811;BME280;33575;52.600;7.318;2023-05-08T09:34:30;101970.79;;;18.16;81.33
47811;BME280;33575;52.600;7.318;2023-05-08T09:39:30;101967.39;;;18.38;81.25
47811;BME280;33575;52.600;7.318;2023-05-08T09:42:02;101973.08;;;18.55;81.20
47811;BME280;33575;52.600;7.318;2023-05-08T09:47:10;101967.74;;;18.83;80.17
47811;BME280;33575;52.600;7.318;2023-05-08T09:49:30;101970.90;;;18.90;79.75
47811;BME280;33575;52.600;7.318;2023-05-08T09:52:01;101975.39;;;18.99;79.54
47811;BME280;33575;52.600;7.318;2023-05-08T09:54:31;101974.19;;;19.03;79.07
47811;BME280;33575;52.600;7.318;2023-05-08T09:57:10;101974.25;;;19.03;79.47
47811;BME280;33575;52.600;7.318;2023-05-08T09:59:35;101969.36;;;19.04;79.79
47811;BME280;33575;52.600;7.318;2023-05-08T10:02:10;101963.60;;;19.03;80.60
47811;BME280;33575;52.600;7.318;2023-05-08T10:04:32;101965.56;;;19.16;79.50
47811;BME280;33575;52.600;7.318;2023-05-08T10:07:03;101968.82;;;19.23;79.05
47811;BME280;33575;52.600;7.318;2023-05-08T10:09:38;101966.38;;;19.37;81.43
47811;BME280;33575;52.600;7.318;2023-05-08T10:12:04;101959.79;;;19.56;79.26
47811;BME280;33575;52.600;7.318;2023-05-08T10:14:34;101959.44;;;19.80;80.82
47811;BME280;33575;52.600;7.318;2023-05-08T10:17:06;101957.81;;;20.03;80.11
47811;BME280;33575;52.600;7.318;2023-05-08T10:19:38;101953.66;;;20.27;79.93
47811;BME280;33575;52.600;7.318;2023-05-08T10:22:07;101948.21;;;20.47;78.78
47811;BME280;33575;52.600;7.318;2023-05-08T10:24:40;101944.97;;;20.36;78.05
47811;BME280;33575;52.600;7.318;2023-05-08T10:27:12;101947.33;;;20.43;77.73
47811;BME280;33575;52.600;7.318;2023-05-08T10:29:41;101949.31;;;20.41;78.11
47811;BME280;33575;52.600;7.318;2023-05-08T10:32:09;101949.04;;;20.50;77.94
47811;BME280;33575;52.600;7.318;2023-05-08T10:34:39;101944.11;;;20.60;78.36
47811;BME280;33575;52.600;7.318;2023-05-08T10:37:08;101946.62;;;20.64;77.69
47811;BME280;33575;52.600;7.318;2023-05-08T10:39:37;101944.97;;;20.64;77.59
47811;BME280;33575;52.600;7.318;2023-05-08T10:42:07;101943.95;;;20.67;77.22
47811;BME280;33575;52.600;7.318;2023-05-08T10:44:39;101942.64;;;20.69;77.42
47811;BME280;33575;52.600;7.318;2023-05-08T10:47:14;101940.36;;;20.67;77.31
47811;BME280;33575;52.600;7.318;2023-05-08T10:49:46;101933.56;;;20.67;77.95
47811;BME280;33575;52.600;7.318;2023-05-08T10:52:16;101929.65;;;20.69;78.75
47811;BME280;33575;52.600;7.318;2023-05-08T10:55:03;101927.77;;;20.69;77.72
47811;BME280;33575;52.600;7.318;2023-05-08T10:57:11;101925.07;;;20.70;77.68
47811;BME280;33575;52.600;7.318;2023-05-08T10:59:44;101925.02;;;20.75;78.44
47811;BME280;33575;52.600;7.318;2023-05-08T11:02:13;101926.71;;;20.85;77.69
47811;BME280;33575;52.600;7.318;2023-05-08T11:04:43;101925.47;;;20.82;77.21
47811;BME280;33575;52.600;7.318;2023-05-08T11:07:14;101925.15;;;20.81;77.76
47811;BME280;33575;52.600;7.318;2023-05-08T11:09:46;101923.28;;;20.84;77.52
47811;BME280;33575;52.600;7.318;2023-05-08T11:12:20;101925.03;;;20.87;77.69
47811;BME280;33575;52.600;7.318;2023-05-08T11:14:54;101923.70;;;20.87;76.97
47811;BME280;33575;52.600;7.318;2023-05-08T11:17:21;101926.23;;;20.91;75.13
47811;BME280;33575;52.600;7.318;2023-05-08T11:19:55;101925.40;;;20.97;76.94
47811;BME280;33575;52.600;7.318;2023-05-08T11:22:23;101927.11;;;20.97;77.51
47811;BME280;33575;52.600;7.318;2023-05-08T11:24:51;101924.62;;;20.95;78.20
47811;BME280;33575;52.600;7.318;2023-05-08T11:27:29;101920.89;;;21.00;77.73
47811;BME280;33575;52.600;7.318;2023-05-08T11:32:19;101914.10;;;21.07;76.54
47811;BME280;33575;52.600;7.318;2023-05-08T11:34:49;101913.43;;;21.12;76.76
47811;BME280;33575;52.600;7.318;2023-05-08T11:37:21;101912.33;;;21.21;77.27
47811;BME280;33575;52.600;7.318;2023-05-08T11:39:50;101914.24;;;21.35;77.80
47811;BME280;33575;52.600;7.318;2023-05-08T11:44:59;101917.13;;;21.41;77.30
47811;BME280;33575;52.600;7.318;2023-05-08T11:47:22;101914.48;;;21.41;77.56
47811;BME280;33575;52.600;7.318;2023-05-08T11:49:54;101914.89;;;21.40;78.25
47811;BME280;33575;52.600;7.318;2023-05-08T11:52:22;101914.87;;;21.47;77.84
47811;BME280;33575;52.600;7.318;2023-05-08T11:54:53;101911.53;;;21.57;77.22
47811;BME280;33575;52.600;7.318;2023-05-08T11:57:23;101907.16;;;21.67;75.65
47811;BME280;33575;52.600;7.318;2023-05-08T11:59:53;101903.20;;;21.72;76.12
47811;BME280;33575;52.600;7.318;2023-05-08T12:04:54;101900.47;;;21.68;76.65
47811;BME280;33575;52.600;7.318;2023-05-08T12:07:26;101900.03;;;21.65;76.01
47811;BME280;33575;52.600;7.318;2023-05-08T12:09:55;101898.40;;;21.61;76.13
47811;BME280;33575;52.600;7.318;2023-05-08T12:12:35;101901.63;;;21.46;76.65
47811;BME280;33575;52.600;7.318;2023-05-08T12:14:57;101901.92;;;21.49;76.68
47811;BME280;33575;52.600;7.318;2023-05-08T12:17:28;101903.37;;;21.56;76.33
47811;BME280;33575;52.600;7.318;2023-05-08T12:22:28;101901.94;;;21.73;75.43
47811;BME280;33575;52.600;7.318;2023-05-08T12:24:59;101900.91;;;21.82;73.20
47811;BME280;33575;52.600;7.318;2023-05-08T12:27:37;101899.09;;;21.81;75.57
47811;BME280;33575;52.600;7.318;2023-05-08T12:30:00;101894.00;;;21.90;75.58
47811;BME280;33575;52.600;7.318;2023-05-08T12:32:30;101894.87;;;21.91;76.13
47811;BME280;33575;52.600;7.318;2023-05-08T12:35:00;101894.64;;;21.99;74.98
47811;BME280;33575;52.600;7.318;2023-05-08T12:37:30;101891.38;;;22.01;75.93
47811;BME280;33575;52.600;7.318;2023-05-08T12:40:01;101889.19;;;22.04;73.30
47811;BME280;33575;52.600;7.318;2023-05-08T12:45:01;101885.37;;;22.20;73.99
47811;BME280;33575;52.600;7.318;2023-05-08T12:47:32;101887.07;;;22.25;74.89
47811;BME280;33575;52.600;7.318;2023-05-08T12:50:02;101885.31;;;22.19;74.85
47811;BME280;33575;52.600;7.318;2023-05-08T12:52:35;101887.13;;;22.17;74.75
47811;BME280;33575;52.600;7.318;2023-05-08T12:55:03;101884.92;;;22.13;75.08
47811;BME280;33575;52.600;7.318;2023-05-08T12:57:36;101882.81;;;22.17;75.12
47811;BME280;33575;52.600;7.318;2023-05-08T13:00:06;101880.58;;;22.22;75.06
47811;BME280;33575;52.600;7.318;2023-05-08T13:02:39;101881.05;;;22.24;75.00
47811;BME280;33575;52.600;7.318;2023-05-08T13:05:05;101877.26;;;22.12;75.91
47811;BME280;33575;52.600;7.318;2023-05-08T13:07:34;101877.06;;;22.08;76.18
47811;BME280;33575;52.600;7.318;2023-05-08T13:10:05;101877.06;;;22.11;76.22
47811;BME280;33575;52.600;7.318;2023-05-08T13:12:36;101874.57;;;22.14;75.76
47811;BME280;33575;52.600;7.318;2023-05-08T13:15:07;101871.12;;;22.08;76.45
47811;BME280;33575;52.600;7.318;2023-05-08T13:17:36;101869.02;;;22.05;76.61
47811;BME280;33575;52.600;7.318;2023-05-08T13:20:08;101868.95;;;22.00;78.67
47811;BME280;33575;52.600;7.318;2023-05-08T13:22:37;101866.87;;;22.03;78.00
47811;BME280;33575;52.600;7.318;2023-05-08T13:25:08;101863.48;;;22.02;78.49
47811;BME280;33575;52.600;7.318;2023-05-08T13:27:38;101862.93;;;22.09;78.31